Terminal Aerodrome Forecast
Issued by NWS Denver/Boulder, CO

Home | Current Version | Previous Version | Text Only | Print | Product List | Glossary On
Versions: 1 2 3 4 5 6 7 8 9 10 11 12 13 14 15 16 17 18 19 20 21 22 23 24 25 26 27 28 29 30 31 32 33 34 35 36 37 38 39 40 41 42 43 44 45 46 47 48 49 50
000
FTUS45 KBOU 291503 AAB
TAFDEN
TAF AMD
KDEN 291503Z 2915/3018 03006KT P6SM OVC050
     FM291600 24006KT P6SM SCT040 BKN060
     FM291800 10006KT P6SM SCT040 BKN070
     FM292100 13008KT P6SM FEW040 SCT070
     FM300100 16010KT P6SM FEW080 BKN200
     FM300800 21010KT P6SM SCT080 BKN140
     FM301400 24006KT P6SM SCT080 BKN140=

USA.gov is the U.S. government's official web portal to all federal, state and local government web resources and services.